createdAt,value
2023-02-23T00:01:58.584Z,18.02
2023-02-23T00:04:25.540Z,18.01
2023-02-23T00:06:53.733Z,18.02
2023-02-23T00:09:24.922Z,18.00
2023-02-23T00:11:57.547Z,18.00
2023-02-23T00:14:29.185Z,17.98
2023-02-23T00:16:56.657Z,17.99
2023-02-23T00:19:25.267Z,17.99
2023-02-23T00:21:53.602Z,17.96
2023-02-23T00:24:21.331Z,17.96
2023-02-23T00:26:51.577Z,17.96
2023-02-23T00:29:23.825Z,17.96
2023-02-23T00:31:52.213Z,17.94
2023-02-23T00:34:21.692Z,17.91
2023-02-23T00:36:54.736Z,17.93
2023-02-23T00:39:25.258Z,17.93
2023-02-23T00:41:53.658Z,17.91
2023-02-23T00:44:22.001Z,17.92
2023-02-23T00:46:51.374Z,17.92
2023-02-23T00:49:19.535Z,17.92
2023-02-23T00:51:47.177Z,17.91
2023-02-23T00:54:18.618Z,17.91
2023-02-23T00:56:46.532Z,17.89
2023-02-23T00:59:14.333Z,17.88
2023-02-23T01:01:42.067Z,17.87
2023-02-23T01:04:10.216Z,17.86
2023-02-23T01:06:37.917Z,17.85
2023-02-23T01:09:10.879Z,17.86
2023-02-23T01:11:37.781Z,17.85
2023-02-23T01:14:04.616Z,17.84
2023-02-23T01:16:33.189Z,17.83
2023-02-23T01:19:02.443Z,17.80
2023-02-23T01:21:32.334Z,17.80
2023-02-23T01:23:59.157Z,17.79
2023-02-23T01:26:28.506Z,17.79
2023-02-23T01:28:58.542Z,17.77
2023-02-23T01:31:25.723Z,17.77
2023-02-23T01:33:57.773Z,17.76
2023-02-23T01:36:25.814Z,17.73
2023-02-23T01:38:56.518Z,17.73
2023-02-23T01:41:24.799Z,17.71
2023-02-23T01:44:28.282Z,17.68
2023-02-23T01:46:54.891Z,17.65
2023-02-23T01:49:26.151Z,17.66
2023-02-23T01:52:02.875Z,17.68
2023-02-23T01:54:38.249Z,17.71
2023-02-23T01:57:08.166Z,17.69
2023-02-23T01:59:41.503Z,17.66
2023-02-23T02:02:08.231Z,17.67
2023-02-23T02:04:44.413Z,17.64
2023-02-23T02:07:14.415Z,17.67
2023-02-23T02:10:03.363Z,17.68
2023-02-23T02:12:30.242Z,17.67
2023-02-23T02:15:00.382Z,17.67
2023-02-23T02:17:49.093Z,17.66
2023-02-23T02:20:30.870Z,17.67
2023-02-23T02:22:57.564Z,17.66
2023-02-23T02:25:36.798Z,17.65
2023-02-23T02:28:24.242Z,17.63
2023-02-23T02:30:56.924Z,17.63
2023-02-23T02:33:46.215Z,17.62
2023-02-23T02:36:24.815Z,17.62
2023-02-23T02:39:22.957Z,17.61
2023-02-23T02:42:18.176Z,17.59
2023-02-23T02:45:07.863Z,17.58
2023-02-23T02:48:04.029Z,17.58
2023-02-23T02:50:46.446Z,17.55
2023-02-23T02:53:22.877Z,17.56
2023-02-23T02:55:51.500Z,17.56
2023-02-23T02:58:18.689Z,17.56
2023-02-23T03:01:07.871Z,17.57
2023-02-23T03:03:59.034Z,17.55
2023-02-23T03:06:52.269Z,17.57
2023-02-23T03:09:55.623Z,17.55
2023-02-23T03:13:12.185Z,17.55
2023-02-23T03:16:19.394Z,17.54
2023-02-23T03:19:04.643Z,17.52
2023-02-23T03:22:02.329Z,17.51
2023-02-23T03:24:59.487Z,17.52
2023-02-23T03:27:57.585Z,17.51
2023-02-23T03:30:49.904Z,17.51
2023-02-23T03:33:42.549Z,17.49
2023-02-23T03:36:38.072Z,17.49
2023-02-23T03:39:48.182Z,17.49
2023-02-23T03:42:37.909Z,17.48
2023-02-23T03:45:28.081Z,17.49
2023-02-23T03:48:16.506Z,17.47
2023-02-23T03:51:08.438Z,17.47
2023-02-23T03:54:33.757Z,17.46
2023-02-23T03:57:24.453Z,17.44
2023-02-23T04:00:22.447Z,17.44
2023-02-23T04:03:12.488Z,17.44
2023-02-23T04:06:00.452Z,17.43
2023-02-23T04:08:52.001Z,17.43
2023-02-23T04:11:47.121Z,17.39
2023-02-23T04:14:20.569Z,17.38
2023-02-23T04:16:48.267Z,17.38
2023-02-23T04:19:15.159Z,17.37
2023-02-23T04:21:41.943Z,17.37
2023-02-23T04:24:10.367Z,17.37
2023-02-23T04:26:37.272Z,17.35
2023-02-23T04:29:04.007Z,17.36
2023-02-23T04:31:30.714Z,17.35
2023-02-23T04:33:57.816Z,17.34
2023-02-23T04:36:24.907Z,17.34
2023-02-23T04:38:51.644Z,17.34
2023-02-23T04:41:19.058Z,17.33
2023-02-23T04:43:45.936Z,17.31
2023-02-23T04:46:12.603Z,17.31
2023-02-23T04:48:39.253Z,17.31
2023-02-23T04:51:06.536Z,17.30
2023-02-23T04:53:33.265Z,17.29
2023-02-23T04:55:59.929Z,17.29
2023-02-23T04:58:27.218Z,17.28
2023-02-23T05:00:53.891Z,17.27
2023-02-23T05:03:20.503Z,17.27
2023-02-23T05:05:47.272Z,17.26
2023-02-23T05:08:14.008Z,17.24
2023-02-23T05:10:40.651Z,17.26
2023-02-23T05:13:07.610Z,17.22
2023-02-23T05:15:34.303Z,17.22
2023-02-23T05:18:01.003Z,17.23
2023-02-23T05:20:27.994Z,17.20
2023-02-23T05:22:54.697Z,17.22
2023-02-23T05:25:21.347Z,17.20
2023-02-23T05:27:47.976Z,17.21
2023-02-23T05:30:14.791Z,17.20
2023-02-23T05:32:41.466Z,17.19
2023-02-23T05:35:09.067Z,17.19
2023-02-23T05:37:35.832Z,17.17
2023-02-23T05:40:02.607Z,17.18
2023-02-23T05:42:29.316Z,17.17
2023-02-23T05:44:55.947Z,17.17
2023-02-23T05:47:22.583Z,17.17
2023-02-23T05:49:49.273Z,17.16
2023-02-23T05:52:19.548Z,17.16
2023-02-23T05:54:46.833Z,17.14
2023-02-23T05:57:13.578Z,17.14
2023-02-23T05:59:40.383Z,17.14
2023-02-23T06:02:07.042Z,17.13
2023-02-23T06:04:34.143Z,17.12
2023-02-23T06:07:00.841Z,17.13
2023-02-23T06:09:27.527Z,17.11
2023-02-23T06:11:54.737Z,17.12
2023-02-23T06:14:22.675Z,17.11
2023-02-23T06:16:49.372Z,17.09
2023-02-23T06:19:16.030Z,17.09
2023-02-23T06:21:42.752Z,17.09
2023-02-23T06:24:10.083Z,17.08
2023-02-23T06:26:37.131Z,17.07
2023-02-23T06:29:03.964Z,17.06
2023-02-23T06:31:30.848Z,17.07
2023-02-23T06:33:57.584Z,17.06
2023-02-23T06:36:28.959Z,17.06
2023-02-23T06:39:03.972Z,17.06
2023-02-23T06:41:31.320Z,17.06
2023-02-23T06:43:57.983Z,17.05
2023-02-23T06:46:25.052Z,17.05
2023-02-23T06:48:55.790Z,17.06
2023-02-23T06:51:22.886Z,17.04
2023-02-23T06:53:49.484Z,17.06
2023-02-23T06:56:16.140Z,17.07
2023-02-23T06:58:43.267Z,17.06
2023-02-23T07:01:10.225Z,17.04
2023-02-23T07:03:36.881Z,17.03
2023-02-23T07:06:04.809Z,17.03
2023-02-23T07:09:10.261Z,17.01
2023-02-23T07:11:37.160Z,17.02
2023-02-23T07:14:03.938Z,16.99
2023-02-23T07:16:30.764Z,17.00
2023-02-23T07:18:57.456Z,17.01
2023-02-23T07:21:24.142Z,17.02
2023-02-23T07:23:50.848Z,17.03
2023-02-23T07:26:18.495Z,17.03
2023-02-23T07:28:45.183Z,17.02
2023-02-23T07:31:11.923Z,17.03
2023-02-23T07:33:38.693Z,17.03
2023-02-23T07:36:06.053Z,17.04
2023-02-23T07:38:33.324Z,17.04
2023-02-23T07:41:00.031Z,17.06
2023-02-23T07:43:26.785Z,17.05
2023-02-23T07:45:53.543Z,17.07
2023-02-23T07:48:21.651Z,17.07
2023-02-23T07:50:48.820Z,17.05
2023-02-23T07:53:15.765Z,17.05
2023-02-23T07:55:42.645Z,17.07
2023-02-23T07:58:10.035Z,17.07
2023-02-23T08:00:38.931Z,17.08
2023-02-23T08:03:06.152Z,17.07
2023-02-23T08:05:33.104Z,17.08
2023-02-23T08:07:59.970Z,17.08
2023-02-23T08:10:26.859Z,17.10
2023-02-23T08:12:53.571Z,17.09
2023-02-23T08:15:20.285Z,17.09
2023-02-23T08:17:46.973Z,17.11
2023-02-23T08:20:13.650Z,17.11
2023-02-23T08:22:49.374Z,17.13
2023-02-23T08:25:17.455Z,17.12
2023-02-23T08:27:44.101Z,17.14
2023-02-23T08:30:11.575Z,17.16
2023-02-23T08:32:38.265Z,17.17
2023-02-23T08:35:09.909Z,17.17
2023-02-23T08:37:37.048Z,17.17
2023-02-23T08:40:04.456Z,17.17
2023-02-23T08:42:31.124Z,17.18
2023-02-23T08:44:59.279Z,17.17
2023-02-23T08:47:26.003Z,17.20
2023-02-23T08:49:56.232Z,17.18
2023-02-23T08:52:26.533Z,17.20
2023-02-23T08:54:53.322Z,17.18
2023-02-23T08:57:20.054Z,17.19
2023-02-23T08:59:47.785Z,17.19
2023-02-23T09:02:15.800Z,17.21
2023-02-23T09:04:43.820Z,17.20
2023-02-23T09:07:17.812Z,17.22
2023-02-23T09:09:44.709Z,17.23
2023-02-23T09:12:12.049Z,17.24
2023-02-23T09:14:39.274Z,17.25
2023-02-23T09:17:07.069Z,17.29
2023-02-23T09:19:34.604Z,17.35
2023-02-23T09:22:01.849Z,17.38
2023-02-23T09:24:29.048Z,17.36
2023-02-23T09:26:56.384Z,17.35
2023-02-23T09:29:23.621Z,17.34
2023-02-23T09:31:53.305Z,17.35
2023-02-23T09:34:20.600Z,17.36
2023-02-23T09:36:47.853Z,17.38
2023-02-23T09:39:15.213Z,17.38
2023-02-23T09:42:08.785Z,17.33
2023-02-23T09:45:12.996Z,17.33
2023-02-23T09:48:02.678Z,17.36
2023-02-23T09:50:38.940Z,17.39
2023-02-23T09:53:13.679Z,17.56
2023-02-23T09:55:42.798Z,17.55
2023-02-23T09:58:21.976Z,17.51
2023-02-23T10:01:15.819Z,17.49
2023-02-23T10:04:17.615Z,17.52
2023-02-23T10:06:49.380Z,17.54
2023-02-23T10:09:27.832Z,17.52
2023-02-23T10:12:10.370Z,17.52
2023-02-23T10:15:01.608Z,17.53
2023-02-23T10:18:06.718Z,17.54
2023-02-23T10:21:07.333Z,17.55
2023-02-23T10:23:40.767Z,17.53
2023-02-23T10:26:15.693Z,17.56
2023-02-23T10:28:45.420Z,17.56
2023-02-23T10:31:45.224Z,17.59
2023-02-23T10:34:17.665Z,17.59
2023-02-23T10:36:56.338Z,17.59
2023-02-23T10:39:23.313Z,17.60
2023-02-23T10:41:50.093Z,17.62
2023-02-23T10:44:25.432Z,17.62
2023-02-23T10:46:59.880Z,17.63
2023-02-23T10:49:41.268Z,17.64
2023-02-23T10:52:14.560Z,17.69
2023-02-23T10:54:48.062Z,17.72
2023-02-23T10:57:30.720Z,17.76
2023-02-23T11:00:06.558Z,17.80
2023-02-23T11:02:36.487Z,17.86
2023-02-23T11:05:05.766Z,17.95
2023-02-23T11:07:34.126Z,17.90
2023-02-23T11:10:26.145Z,17.81
2023-02-23T11:12:52.951Z,17.80
2023-02-23T11:15:35.131Z,17.79
2023-02-23T11:18:07.110Z,17.83
2023-02-23T11:20:39.494Z,17.88
2023-02-23T11:23:35.861Z,17.87
2023-02-23T11:26:06.490Z,17.86
2023-02-23T11:28:41.807Z,17.83
2023-02-23T11:31:20.192Z,17.83
2023-02-23T11:33:50.281Z,17.81
2023-02-23T11:36:27.027Z,17.81
2023-02-23T11:39:04.184Z,17.83
2023-02-23T11:41:32.952Z,17.81
2023-02-23T11:44:04.310Z,17.80
2023-02-23T11:46:37.306Z,17.78
2023-02-23T11:49:07.586Z,17.76
2023-02-23T11:51:39.663Z,17.77
2023-02-23T11:54:15.853Z,17.79
2023-02-23T11:56:50.542Z,17.82
2023-02-23T11:59:20.629Z,17.85
2023-02-23T12:01:51.370Z,17.89
2023-02-23T12:04:32.807Z,17.91
2023-02-23T12:07:41.834Z,17.92
2023-02-23T12:10:23.870Z,17.92
2023-02-23T12:12:58.877Z,17.93
2023-02-23T12:15:39.944Z,17.91
2023-02-23T12:18:47.177Z,17.93
2023-02-23T12:21:36.681Z,17.93
2023-02-23T12:24:28.382Z,17.97
2023-02-23T12:27:00.489Z,18.00
2023-02-23T12:29:56.900Z,18.05
2023-02-23T12:32:56.252Z,18.07
2023-02-23T12:35:31.214Z,18.10
2023-02-23T12:38:03.995Z,18.11
2023-02-23T12:40:35.982Z,18.16
2023-02-23T12:43:11.919Z,18.24
2023-02-23T12:46:14.188Z,18.26
2023-02-23T12:48:52.901Z,18.23
2023-02-23T12:51:31.201Z,18.16
2023-02-23T12:53:57.899Z,18.16
2023-02-23T12:56:50.642Z,18.15
2023-02-23T12:59:35.545Z,18.13
2023-02-23T13:02:12.274Z,18.16
2023-02-23T13:04:51.122Z,18.19
2023-02-23T13:07:24.811Z,18.20
2023-02-23T13:10:09.873Z,18.24
2023-02-23T13:12:53.818Z,18.29
2023-02-23T13:15:23.790Z,18.31
2023-02-23T13:17:53.449Z,18.32
2023-02-23T13:20:33.747Z,18.31
2023-02-23T13:23:34.654Z,18.29
2023-02-23T13:26:10.798Z,18.30
2023-02-23T13:28:56.430Z,18.32
2023-02-23T13:31:31.343Z,18.33
2023-02-23T13:34:00.609Z,18.34
2023-02-23T13:36:34.365Z,18.38
2023-02-23T13:39:19.321Z,18.37
2023-02-23T13:42:03.434Z,18.33
2023-02-23T13:44:47.367Z,18.28
2023-02-23T13:47:49.112Z,18.25
2023-02-23T13:50:34.572Z,18.28
2023-02-23T13:53:07.039Z,18.29
2023-02-23T13:55:49.779Z,18.32
2023-02-23T13:58:25.227Z,18.33
2023-02-23T14:01:09.835Z,18.34
2023-02-23T14:03:47.268Z,18.36
2023-02-23T14:06:18.302Z,18.35
2023-02-23T14:08:52.364Z,18.35
2023-02-23T14:11:50.979Z,18.37
2023-02-23T14:14:33.210Z,18.39
2023-02-23T14:17:14.941Z,18.41
2023-02-23T14:19:42.877Z,18.40
2023-02-23T14:22:13.950Z,18.36
2023-02-23T14:24:40.767Z,18.34
2023-02-23T14:27:38.526Z,18.33
2023-02-23T14:30:13.161Z,18.31
2023-02-23T14:32:42.923Z,18.29
2023-02-23T14:35:34.549Z,18.30
2023-02-23T14:38:05.204Z,18.31
2023-02-23T14:40:35.404Z,18.30
2023-02-23T14:43:04.292Z,18.31
2023-02-23T14:45:34.200Z,18.30
2023-02-23T14:48:13.056Z,18.29
2023-02-23T14:50:41.430Z,18.29
2023-02-23T14:53:19.873Z,18.30
2023-02-23T14:55:46.711Z,18.31
2023-02-23T14:58:27.215Z,18.32
2023-02-23T15:00:54.030Z,18.32
2023-02-23T15:03:22.519Z,18.32
2023-02-23T15:05:56.422Z,18.30
2023-02-23T15:08:26.364Z,18.29
2023-02-23T15:10:59.103Z,18.29
2023-02-23T15:13:31.538Z,18.31
2023-02-23T15:16:09.093Z,18.30
2023-02-23T15:19:32.247Z,18.30
2023-02-23T15:22:01.697Z,18.30
2023-02-23T15:24:33.463Z,18.27
2023-02-23T15:27:00.264Z,18.27
2023-02-23T15:29:35.678Z,18.27
2023-02-23T15:32:26.062Z,18.26
2023-02-23T15:34:55.677Z,18.27
2023-02-23T15:37:27.406Z,18.26
2023-02-23T15:40:30.205Z,18.26
2023-02-23T15:43:01.296Z,18.26
2023-02-23T15:45:40.426Z,18.25
2023-02-23T15:48:17.363Z,18.26
2023-02-23T15:50:50.975Z,18.25
2023-02-23T15:53:30.862Z,18.26
2023-02-23T15:56:03.883Z,18.24
2023-02-23T15:58:41.828Z,18.24
2023-02-23T16:01:25.062Z,18.26
2023-02-23T16:04:16.272Z,18.23
2023-02-23T16:06:51.804Z,18.25
2023-02-23T16:09:29.254Z,18.24
2023-02-23T16:12:05.171Z,18.23
2023-02-23T16:14:45.227Z,18.23
2023-02-23T16:17:27.320Z,18.22
2023-02-23T16:19:58.150Z,18.23
2023-02-23T16:22:27.792Z,18.21
2023-02-23T16:25:05.395Z,18.22
2023-02-23T16:27:38.475Z,18.20
2023-02-23T16:30:19.360Z,18.20
2023-02-23T16:32:46.442Z,18.20
2023-02-23T16:35:20.718Z,18.19
2023-02-23T16:38:15.158Z,18.19
2023-02-23T16:40:49.015Z,18.18
2023-02-23T16:43:16.437Z,18.19
2023-02-23T16:45:44.227Z,18.19
2023-02-23T16:48:16.267Z,18.17
2023-02-23T16:50:43.523Z,18.17
2023-02-23T16:53:12.438Z,18.17
2023-02-23T16:55:50.873Z,18.17
2023-02-23T16:58:24.990Z,18.16
2023-02-23T17:00:52.702Z,18.18
2023-02-23T17:03:24.484Z,18.15
2023-02-23T17:05:52.170Z,18.16
2023-02-23T17:08:19.514Z,18.17
2023-02-23T17:10:49.317Z,18.17
2023-02-23T17:13:18.096Z,18.15
2023-02-23T17:15:51.945Z,18.15
2023-02-23T17:18:22.129Z,18.15
2023-02-23T17:20:49.360Z,18.14
2023-02-23T17:23:16.509Z,18.15
2023-02-23T17:25:43.356Z,18.14
2023-02-23T17:28:10.344Z,18.14
2023-02-23T17:30:39.427Z,18.15
2023-02-23T17:33:06.927Z,18.15
2023-02-23T17:35:33.875Z,18.14
2023-02-23T17:38:01.189Z,18.13
2023-02-23T17:40:31.379Z,18.13
2023-02-23T17:43:00.367Z,18.14
2023-02-23T17:45:28.115Z,18.13
2023-02-23T17:47:55.737Z,18.12
2023-02-23T17:50:23.356Z,18.12
2023-02-23T17:52:51.364Z,18.13
2023-02-23T17:55:19.690Z,18.13
2023-02-23T17:57:47.261Z,18.12
2023-02-23T18:00:16.249Z,18.13
2023-02-23T18:02:45.180Z,18.12
2023-02-23T18:05:13.773Z,18.12
2023-02-23T18:07:40.698Z,18.12
2023-02-23T18:10:08.759Z,18.11
2023-02-23T18:12:35.734Z,18.10
2023-02-23T18:15:02.740Z,18.11
2023-02-23T18:17:32.599Z,18.09
2023-02-23T18:20:02.270Z,18.10
2023-02-23T18:22:29.095Z,18.09
2023-02-23T18:24:57.294Z,18.09
2023-02-23T18:27:24.821Z,18.08
2023-02-23T18:29:53.828Z,18.08
2023-02-23T18:32:21.030Z,18.08
2023-02-23T18:34:47.897Z,18.06
2023-02-23T18:37:21.552Z,18.07
2023-02-23T18:39:53.235Z,18.05
2023-02-23T18:42:21.013Z,18.07
2023-02-23T18:44:48.066Z,18.06
2023-02-23T18:47:15.043Z,18.07
2023-02-23T18:49:41.793Z,18.05
2023-02-23T18:52:09.874Z,18.05
2023-02-23T18:54:37.329Z,18.03
2023-02-23T18:57:05.774Z,18.04
2023-02-23T18:59:33.371Z,18.04
2023-02-23T19:02:00.132Z,18.03
2023-02-23T19:04:26.937Z,18.03
2023-02-23T19:06:53.802Z,18.04
2023-02-23T19:09:21.472Z,18.03
2023-02-23T19:11:51.581Z,18.03
2023-02-23T19:14:23.892Z,18.03
2023-02-23T19:16:55.963Z,18.02
2023-02-23T19:19:26.877Z,18.02
2023-02-23T19:21:53.597Z,18.02
2023-02-23T19:24:20.747Z,18.01
2023-02-23T19:26:47.469Z,18.01
2023-02-23T19:29:14.153Z,18.00
2023-02-23T19:31:40.892Z,18.00
2023-02-23T19:34:11.853Z,18.01
2023-02-23T19:36:39.980Z,18.00
2023-02-23T19:39:10.944Z,18.01
2023-02-23T19:41:39.754Z,17.99
2023-02-23T19:44:06.897Z,17.99
2023-02-23T19:46:35.105Z,17.98
2023-02-23T19:49:02.005Z,17.98
2023-02-23T19:51:29.112Z,17.98
2023-02-23T19:53:57.404Z,17.98
2023-02-23T19:56:25.629Z,17.96
2023-02-23T19:58:52.372Z,17.95
2023-02-23T20:01:21.594Z,17.97
2023-02-23T20:03:55.570Z,17.96
2023-02-23T20:06:25.375Z,17.96
2023-02-23T20:08:52.767Z,17.96
2023-02-23T20:11:20.106Z,17.96
2023-02-23T20:13:46.961Z,17.95
2023-02-23T20:16:14.816Z,17.94
2023-02-23T20:18:42.001Z,17.93
2023-02-23T20:21:16.914Z,17.96
2023-02-23T20:23:45.130Z,17.93
2023-02-23T20:26:15.283Z,17.93
2023-02-23T20:28:42.057Z,17.91
2023-02-23T20:31:18.318Z,17.91
2023-02-23T20:33:45.085Z,17.92
2023-02-23T20:36:14.928Z,17.93
2023-02-23T20:38:42.459Z,17.90
2023-02-23T20:41:09.201Z,17.91
2023-02-23T20:43:36.963Z,17.88
2023-02-23T20:46:03.719Z,17.91
2023-02-23T20:48:31.648Z,17.88
2023-02-23T20:50:58.938Z,17.88
2023-02-23T20:53:29.333Z,17.87
2023-02-23T20:55:56.283Z,17.86
2023-02-23T20:58:25.715Z,17.85
2023-02-23T21:01:02.809Z,17.85
2023-02-23T21:03:29.543Z,17.86
2023-02-23T21:05:56.335Z,17.86
2023-02-23T21:08:23.019Z,17.84
2023-02-23T21:10:50.391Z,17.85
2023-02-23T21:13:18.555Z,17.83
2023-02-23T21:15:46.097Z,17.82
2023-02-23T21:18:12.909Z,17.83
2023-02-23T21:20:40.204Z,17.81
2023-02-23T21:23:07.465Z,17.81
2023-02-23T21:25:34.169Z,17.81
2023-02-23T21:30:33.970Z,17.79
2023-02-23T21:33:00.690Z,17.80
2023-02-23T21:35:27.495Z,17.79
2023-02-23T21:37:54.185Z,17.79
2023-02-23T21:40:21.990Z,17.78
2023-02-23T21:42:49.794Z,17.78
2023-02-23T21:45:17.353Z,17.79
2023-02-23T21:47:45.967Z,17.76
2023-02-23T21:50:15.456Z,17.77
2023-02-23T21:52:43.823Z,17.77
2023-02-23T21:55:24.506Z,17.76
2023-02-23T21:57:51.931Z,17.75
2023-02-23T22:00:19.338Z,17.74
2023-02-23T22:02:47.114Z,17.73
2023-02-23T22:05:15.905Z,17.74
2023-02-23T22:07:48.825Z,17.73
2023-02-23T22:10:17.108Z,17.72
2023-02-23T22:12:43.665Z,17.72
2023-02-23T22:15:10.649Z,17.72
2023-02-23T22:17:38.673Z,17.72
2023-02-23T22:20:07.432Z,17.72
2023-02-23T22:22:40.232Z,17.70
2023-02-23T22:25:07.852Z,17.69
2023-02-23T22:27:34.440Z,17.70
2023-02-23T22:30:01.866Z,17.70
2023-02-23T22:32:33.081Z,17.70
2023-02-23T22:35:00.802Z,17.68
2023-02-23T22:37:32.156Z,17.67
2023-02-23T22:40:08.351Z,17.66
2023-02-23T22:42:35.498Z,17.65
2023-02-23T22:45:02.105Z,17.66
2023-02-23T22:47:28.661Z,17.68
2023-02-23T22:49:55.408Z,17.66
2023-02-23T22:52:21.998Z,17.65
2023-02-23T22:54:48.594Z,17.64
2023-02-23T22:57:15.173Z,17.65
2023-02-23T22:59:54.507Z,17.62
2023-02-23T23:02:23.859Z,17.63
2023-02-23T23:04:51.491Z,17.62
2023-02-23T23:07:20.134Z,17.61
2023-02-23T23:09:46.691Z,17.61
2023-02-23T23:12:13.505Z,17.60
2023-02-23T23:14:40.120Z,17.62
2023-02-23T23:17:06.741Z,17.59
2023-02-23T23:19:39.004Z,17.60
2023-02-23T23:22:06.074Z,17.60
2023-02-23T23:24:32.628Z,17.59
2023-02-23T23:27:08.256Z,17.59
2023-02-23T23:29:34.807Z,17.59
2023-02-23T23:32:03.332Z,17.59
2023-02-23T23:34:33.596Z,17.57
2023-02-23T23:37:01.392Z,17.57
2023-02-23T23:39:27.965Z,17.57
2023-02-23T23:41:54.721Z,17.58
2023-02-23T23:44:29.439Z,17.57
2023-02-23T23:46:56.967Z,17.58
2023-02-23T23:49:27.448Z,17.56
2023-02-23T23:51:58.529Z,17.55
2023-02-23T23:54:27.512Z,17.56
2023-02-23T23:56:54.356Z,17.55
2023-02-23T23:59:23.365Z,17.53
